sensor_id;sensor_type;location;lat;lon;timestamp;P1;durP1;ratioP1;P2;durP2;ratioP2
23531;SDS011;11943;52.270;20.978;2023-06-04T00:01:50;9.82;;;3.95;;
23531;SDS011;11943;52.270;20.978;2023-06-04T00:04:16;15.40;;;4.43;;
23531;SDS011;11943;52.270;20.978;2023-06-04T00:06:41;8.35;;;4.38;;
23531;SDS011;11943;52.270;20.978;2023-06-04T00:09:08;13.13;;;4.27;;
23531;SDS011;11943;52.270;20.978;2023-06-04T00:11:34;8.30;;;4.15;;
23531;SDS011;11943;52.270;20.978;2023-06-04T00:14:01;10.27;;;4.75;;
23531;SDS011;11943;52.270;20.978;2023-06-04T00:16:27;9.75;;;4.35;;
23531;SDS011;11943;52.270;20.978;2023-06-04T00:18:53;7.60;;;4.43;;
23531;SDS011;11943;52.270;20.978;2023-06-04T00:21:19;15.30;;;4.30;;
23531;SDS011;11943;52.270;20.978;2023-06-04T00:23:45;7.70;;;4.47;;
23531;SDS011;11943;52.270;20.978;2023-06-04T00:26:10;9.02;;;4.22;;
23531;SDS011;11943;52.270;20.978;2023-06-04T00:28:36;9.73;;;3.78;;
23531;SDS011;11943;52.270;20.978;2023-06-04T00:31:04;11.00;;;4.18;;
23531;SDS011;11943;52.270;20.978;2023-06-04T00:33:30;9.43;;;4.15;;
23531;SDS011;11943;52.270;20.978;2023-06-04T00:35:56;9.15;;;4.30;;
23531;SDS011;11943;52.270;20.978;2023-06-04T00:38:22;8.77;;;4.28;;
23531;SDS011;11943;52.270;20.978;2023-06-04T00:40:48;11.05;;;4.32;;
23531;SDS011;11943;52.270;20.978;2023-06-04T00:43:13;18.10;;;3.95;;
23531;SDS011;11943;52.270;20.978;2023-06-04T00:45:39;5.55;;;3.20;;
23531;SDS011;11943;52.270;20.978;2023-06-04T00:48:05;12.80;;;4.05;;
23531;SDS011;11943;52.270;20.978;2023-06-04T00:50:31;14.07;;;4.35;;
23531;SDS011;11943;52.270;20.978;2023-06-04T00:52:58;11.30;;;4.20;;
23531;SDS011;11943;52.270;20.978;2023-06-04T00:55:24;8.05;;;3.75;;
23531;SDS011;11943;52.270;20.978;2023-06-04T00:57:50;6.68;;;3.63;;
23531;SDS011;11943;52.270;20.978;2023-06-04T01:00:15;5.40;;;3.80;;
23531;SDS011;11943;52.270;20.978;2023-06-04T01:02:42;8.13;;;4.13;;
23531;SDS011;11943;52.270;20.978;2023-06-04T01:07:59;15.85;;;4.15;;
23531;SDS011;11943;52.270;20.978;2023-06-04T01:10:25;5.45;;;3.83;;
23531;SDS011;11943;52.270;20.978;2023-06-04T01:12:50;9.82;;;4.20;;
23531;SDS011;11943;52.270;20.978;2023-06-04T01:15:16;8.43;;;3.80;;
23531;SDS011;11943;52.270;20.978;2023-06-04T01:17:43;7.18;;;4.15;;
23531;SDS011;11943;52.270;20.978;2023-06-04T01:27:59;7.05;;;3.67;;
23531;SDS011;11943;52.270;20.978;2023-06-04T01:30:29;6.28;;;3.85;;
23531;SDS011;11943;52.270;20.978;2023-06-04T01:32:57;5.75;;;3.30;;
23531;SDS011;11943;52.270;20.978;2023-06-04T01:35:25;7.88;;;3.67;;
23531;SDS011;11943;52.270;20.978;2023-06-04T01:37:51;9.93;;;3.80;;
23531;SDS011;11943;52.270;20.978;2023-06-04T01:40:17;9.48;;;3.85;;
23531;SDS011;11943;52.270;20.978;2023-06-04T01:42:43;8.52;;;3.40;;
23531;SDS011;11943;52.270;20.978;2023-06-04T01:45:09;13.57;;;3.80;;
23531;SDS011;11943;52.270;20.978;2023-06-04T01:47:35;7.93;;;3.30;;
23531;SDS011;11943;52.270;20.978;2023-06-04T01:50:02;6.40;;;3.40;;
23531;SDS011;11943;52.270;20.978;2023-06-04T01:52:28;6.47;;;3.20;;
23531;SDS011;11943;52.270;20.978;2023-06-04T01:54:54;7.45;;;3.33;;
23531;SDS011;11943;52.270;20.978;2023-06-04T01:57:21;4.85;;;2.97;;
23531;SDS011;11943;52.270;20.978;2023-06-04T01:59:47;3.97;;;3.08;;
23531;SDS011;11943;52.270;20.978;2023-06-04T02:02:13;7.88;;;3.00;;
23531;SDS011;11943;52.270;20.978;2023-06-04T02:04:40;7.35;;;3.03;;
23531;SDS011;11943;52.270;20.978;2023-06-04T02:07:10;6.25;;;3.25;;
23531;SDS011;11943;52.270;20.978;2023-06-04T02:09:36;6.40;;;2.88;;
23531;SDS011;11943;52.270;20.978;2023-06-04T02:12:02;4.20;;;2.35;;
23531;SDS011;11943;52.270;20.978;2023-06-04T02:14:28;6.32;;;2.78;;
23531;SDS011;11943;52.270;20.978;2023-06-04T02:16:54;6.90;;;3.22;;
23531;SDS011;11943;52.270;20.978;2023-06-04T02:19:23;6.80;;;3.05;;
23531;SDS011;11943;52.270;20.978;2023-06-04T02:21:50;7.43;;;2.67;;
23531;SDS011;11943;52.270;20.978;2023-06-04T02:24:17;7.35;;;2.50;;
23531;SDS011;11943;52.270;20.978;2023-06-04T02:26:42;5.82;;;3.05;;
23531;SDS011;11943;52.270;20.978;2023-06-04T02:29:08;4.03;;;2.78;;
23531;SDS011;11943;52.270;20.978;2023-06-04T02:31:33;3.53;;;2.67;;
23531;SDS011;11943;52.270;20.978;2023-06-04T02:33:59;5.63;;;2.58;;
23531;SDS011;11943;52.270;20.978;2023-06-04T02:36:25;4.03;;;2.53;;
23531;SDS011;11943;52.270;20.978;2023-06-04T02:38:51;8.90;;;2.95;;
23531;SDS011;11943;52.270;20.978;2023-06-04T02:41:17;14.70;;;3.53;;
23531;SDS011;11943;52.270;20.978;2023-06-04T02:43:44;6.38;;;2.47;;
23531;SDS011;11943;52.270;20.978;2023-06-04T02:46:09;6.30;;;3.03;;
23531;SDS011;11943;52.270;20.978;2023-06-04T02:48:35;5.18;;;2.85;;
23531;SDS011;11943;52.270;20.978;2023-06-04T02:51:01;6.35;;;2.92;;
23531;SDS011;11943;52.270;20.978;2023-06-04T02:53:26;8.40;;;3.08;;
23531;SDS011;11943;52.270;20.978;2023-06-04T02:55:52;4.25;;;2.63;;
23531;SDS011;11943;52.270;20.978;2023-06-04T02:58:18;4.60;;;2.90;;
23531;SDS011;11943;52.270;20.978;2023-06-04T03:00:44;4.75;;;2.70;;
23531;SDS011;11943;52.270;20.978;2023-06-04T03:03:10;9.95;;;2.80;;
23531;SDS011;11943;52.270;20.978;2023-06-04T03:05:35;3.53;;;2.38;;
23531;SDS011;11943;52.270;20.978;2023-06-04T03:08:04;4.90;;;2.45;;
23531;SDS011;11943;52.270;20.978;2023-06-04T03:10:30;4.65;;;2.70;;
23531;SDS011;11943;52.270;20.978;2023-06-04T03:12:56;4.93;;;2.83;;
23531;SDS011;11943;52.270;20.978;2023-06-04T03:15:21;3.83;;;2.80;;
23531;SDS011;11943;52.270;20.978;2023-06-04T03:17:47;5.22;;;3.20;;
23531;SDS011;11943;52.270;20.978;2023-06-04T03:20:13;5.90;;;2.72;;
23531;SDS011;11943;52.270;20.978;2023-06-04T03:22:39;6.15;;;3.13;;
23531;SDS011;11943;52.270;20.978;2023-06-04T03:25:05;6.95;;;2.63;;
23531;SDS011;11943;52.270;20.978;2023-06-04T03:27:31;7.72;;;2.70;;
23531;SDS011;11943;52.270;20.978;2023-06-04T03:29:58;7.25;;;3.00;;
23531;SDS011;11943;52.270;20.978;2023-06-04T03:32:23;5.68;;;3.22;;
23531;SDS011;11943;52.270;20.978;2023-06-04T03:34:49;5.22;;;2.45;;
23531;SDS011;11943;52.270;20.978;2023-06-04T03:37:16;4.50;;;3.00;;
23531;SDS011;11943;52.270;20.978;2023-06-04T03:39:42;9.93;;;2.92;;
23531;SDS011;11943;52.270;20.978;2023-06-04T03:42:07;6.80;;;2.95;;
23531;SDS011;11943;52.270;20.978;2023-06-04T03:44:33;4.10;;;2.67;;
23531;SDS011;11943;52.270;20.978;2023-06-04T03:46:59;8.70;;;2.83;;
23531;SDS011;11943;52.270;20.978;2023-06-04T03:49:25;5.88;;;2.88;;
23531;SDS011;11943;52.270;20.978;2023-06-04T03:51:50;6.53;;;2.80;;
23531;SDS011;11943;52.270;20.978;2023-06-04T03:54:16;4.07;;;2.45;;
23531;SDS011;11943;52.270;20.978;2023-06-04T03:56:45;6.88;;;2.65;;
23531;SDS011;11943;52.270;20.978;2023-06-04T03:59:11;4.35;;;2.78;;
23531;SDS011;11943;52.270;20.978;2023-06-04T04:01:37;4.45;;;2.70;;
23531;SDS011;11943;52.270;20.978;2023-06-04T04:04:03;6.05;;;2.75;;
23531;SDS011;11943;52.270;20.978;2023-06-04T04:06:30;7.00;;;2.83;;
23531;SDS011;11943;52.270;20.978;2023-06-04T04:08:55;7.35;;;3.03;;
23531;SDS011;11943;52.270;20.978;2023-06-04T04:11:21;6.18;;;3.05;;
23531;SDS011;11943;52.270;20.978;2023-06-04T04:13:47;5.70;;;2.90;;
23531;SDS011;11943;52.270;20.978;2023-06-04T04:16:13;7.10;;;3.10;;
23531;SDS011;11943;52.270;20.978;2023-06-04T04:18:40;9.82;;;2.80;;
23531;SDS011;11943;52.270;20.978;2023-06-04T04:21:08;3.05;;;2.42;;
23531;SDS011;11943;52.270;20.978;2023-06-04T04:23:33;5.70;;;2.30;;
23531;SDS011;11943;52.270;20.978;2023-06-04T04:26:00;3.92;;;2.30;;
23531;SDS011;11943;52.270;20.978;2023-06-04T04:28:27;4.93;;;2.67;;
23531;SDS011;11943;52.270;20.978;2023-06-04T04:30:56;4.82;;;2.55;;
23531;SDS011;11943;52.270;20.978;2023-06-04T04:33:22;5.43;;;2.00;;
23531;SDS011;11943;52.270;20.978;2023-06-04T04:35:51;4.63;;;2.30;;
23531;SDS011;11943;52.270;20.978;2023-06-04T04:38:21;6.00;;;2.50;;
23531;SDS011;11943;52.270;20.978;2023-06-04T04:40:49;5.00;;;2.25;;
23531;SDS011;11943;52.270;20.978;2023-06-04T04:43:17;5.57;;;2.25;;
23531;SDS011;11943;52.270;20.978;2023-06-04T04:48:30;2.95;;;1.90;;
23531;SDS011;11943;52.270;20.978;2023-06-04T04:50:56;4.40;;;2.28;;
23531;SDS011;11943;52.270;20.978;2023-06-04T04:53:22;4.05;;;2.13;;
23531;SDS011;11943;52.270;20.978;2023-06-04T04:55:48;4.75;;;2.30;;
23531;SDS011;11943;52.270;20.978;2023-06-04T04:58:14;7.07;;;2.22;;
23531;SDS011;11943;52.270;20.978;2023-06-04T05:00:40;4.63;;;2.15;;
23531;SDS011;11943;52.270;20.978;2023-06-04T05:03:05;3.75;;;2.15;;
23531;SDS011;11943;52.270;20.978;2023-06-04T05:05:31;5.57;;;2.10;;
23531;SDS011;11943;52.270;20.978;2023-06-04T05:07:58;5.18;;;2.33;;
23531;SDS011;11943;52.270;20.978;2023-06-04T05:10:23;4.97;;;2.10;;
23531;SDS011;11943;52.270;20.978;2023-06-04T05:12:52;4.82;;;1.95;;
23531;SDS011;11943;52.270;20.978;2023-06-04T05:15:23;4.45;;;2.08;;
23531;SDS011;11943;52.270;20.978;2023-06-04T05:17:49;9.73;;;2.10;;
23531;SDS011;11943;52.270;20.978;2023-06-04T05:22:43;2.63;;;1.80;;
23531;SDS011;11943;52.270;20.978;2023-06-04T05:25:10;5.90;;;1.70;;
23531;SDS011;11943;52.270;20.978;2023-06-04T05:27:36;6.13;;;2.00;;
23531;SDS011;11943;52.270;20.978;2023-06-04T05:30:03;6.63;;;1.95;;
23531;SDS011;11943;52.270;20.978;2023-06-04T05:32:29;2.78;;;1.73;;
23531;SDS011;11943;52.270;20.978;2023-06-04T05:34:57;6.25;;;1.88;;
23531;SDS011;11943;52.270;20.978;2023-06-04T05:37:24;4.68;;;1.83;;
23531;SDS011;11943;52.270;20.978;2023-06-04T05:39:57;4.53;;;2.10;;
23531;SDS011;11943;52.270;20.978;2023-06-04T05:42:23;4.07;;;1.90;;
23531;SDS011;11943;52.270;20.978;2023-06-04T05:44:49;2.70;;;1.55;;
23531;SDS011;11943;52.270;20.978;2023-06-04T05:47:15;2.33;;;1.40;;
23531;SDS011;11943;52.270;20.978;2023-06-04T05:49:44;2.90;;;1.67;;
23531;SDS011;11943;52.270;20.978;2023-06-04T05:52:10;5.03;;;1.88;;
23531;SDS011;11943;52.270;20.978;2023-06-04T05:54:36;3.47;;;1.35;;
23531;SDS011;11943;52.270;20.978;2023-06-04T05:57:04;3.42;;;1.35;;
23531;SDS011;11943;52.270;20.978;2023-06-04T05:59:34;6.07;;;1.63;;
23531;SDS011;11943;52.270;20.978;2023-06-04T06:01:59;4.53;;;1.70;;
23531;SDS011;11943;52.270;20.978;2023-06-04T06:04:25;3.75;;;1.42;;
23531;SDS011;11943;52.270;20.978;2023-06-04T06:06:51;6.13;;;1.75;;
23531;SDS011;11943;52.270;20.978;2023-06-04T06:09:17;5.20;;;1.20;;
23531;SDS011;11943;52.270;20.978;2023-06-04T06:11:43;3.65;;;1.35;;
23531;SDS011;11943;52.270;20.978;2023-06-04T06:14:08;4.57;;;1.52;;
23531;SDS011;11943;52.270;20.978;2023-06-04T06:16:34;3.97;;;1.38;;
23531;SDS011;11943;52.270;20.978;2023-06-04T06:19:01;2.45;;;1.65;;
23531;SDS011;11943;52.270;20.978;2023-06-04T06:21:27;2.67;;;1.70;;
23531;SDS011;11943;52.270;20.978;2023-06-04T06:23:53;5.25;;;1.70;;
23531;SDS011;11943;52.270;20.978;2023-06-04T06:26:19;3.92;;;1.48;;
23531;SDS011;11943;52.270;20.978;2023-06-04T06:28:46;2.95;;;1.50;;
23531;SDS011;11943;52.270;20.978;2023-06-04T06:31:12;2.10;;;1.27;;
23531;SDS011;11943;52.270;20.978;2023-06-04T06:33:38;2.05;;;1.15;;
23531;SDS011;11943;52.270;20.978;2023-06-04T06:36:06;6.45;;;1.10;;
23531;SDS011;11943;52.270;20.978;2023-06-04T06:38:33;5.53;;;1.50;;
23531;SDS011;11943;52.270;20.978;2023-06-04T06:40:58;3.33;;;1.20;;
23531;SDS011;11943;52.270;20.978;2023-06-04T06:43:24;2.33;;;1.20;;
23531;SDS011;11943;52.270;20.978;2023-06-04T06:45:50;2.72;;;1.40;;
23531;SDS011;11943;52.270;20.978;2023-06-04T06:48:16;6.97;;;1.27;;
23531;SDS011;11943;52.270;20.978;2023-06-04T06:50:41;2.45;;;1.50;;
23531;SDS011;11943;52.270;20.978;2023-06-04T06:53:07;1.42;;;0.85;;
23531;SDS011;11943;52.270;20.978;2023-06-04T06:55:33;3.13;;;1.00;;
23531;SDS011;11943;52.270;20.978;2023-06-04T06:57:58;2.33;;;1.10;;
23531;SDS011;11943;52.270;20.978;2023-06-04T07:00:25;2.00;;;0.90;;
23531;SDS011;11943;52.270;20.978;2023-06-04T07:02:52;6.20;;;1.10;;
23531;SDS011;11943;52.270;20.978;2023-06-04T07:05:18;2.55;;;1.02;;
23531;SDS011;11943;52.270;20.978;2023-06-04T07:07:43;6.40;;;0.95;;
23531;SDS011;11943;52.270;20.978;2023-06-04T07:10:09;3.55;;;0.70;;
23531;SDS011;11943;52.270;20.978;2023-06-04T07:12:36;2.95;;;0.90;;
23531;SDS011;11943;52.270;20.978;2023-06-04T07:15:01;2.05;;;0.80;;
23531;SDS011;11943;52.270;20.978;2023-06-04T07:17:27;3.40;;;1.50;;
23531;SDS011;11943;52.270;20.978;2023-06-04T07:19:53;1.83;;;0.80;;
23531;SDS011;11943;52.270;20.978;2023-06-04T07:22:18;1.55;;;0.85;;
23531;SDS011;11943;52.270;20.978;2023-06-04T07:24:44;4.82;;;0.95;;
23531;SDS011;11943;52.270;20.978;2023-06-04T07:27:11;4.60;;;0.90;;
23531;SDS011;11943;52.270;20.978;2023-06-04T07:29:40;1.85;;;0.95;;
23531;SDS011;11943;52.270;20.978;2023-06-04T07:32:06;5.00;;;0.80;;
23531;SDS011;11943;52.270;20.978;2023-06-04T07:34:32;0.90;;;0.77;;
23531;SDS011;11943;52.270;20.978;2023-06-04T07:36:57;3.38;;;0.95;;
23531;SDS011;11943;52.270;20.978;2023-06-04T07:39:23;2.50;;;1.20;;
23531;SDS011;11943;52.270;20.978;2023-06-04T07:41:48;2.05;;;1.10;;
23531;SDS011;11943;52.270;20.978;2023-06-04T07:44:14;2.08;;;0.90;;
23531;SDS011;11943;52.270;20.978;2023-06-04T07:46:40;1.65;;;0.90;;
23531;SDS011;11943;52.270;20.978;2023-06-04T07:49:06;6.22;;;1.40;;
23531;SDS011;11943;52.270;20.978;2023-06-04T07:51:32;4.53;;;1.10;;
23531;SDS011;11943;52.270;20.978;2023-06-04T07:53:58;2.65;;;1.20;;
23531;SDS011;11943;52.270;20.978;2023-06-04T07:56:24;5.57;;;0.95;;
23531;SDS011;11943;52.270;20.978;2023-06-04T07:58:50;6.50;;;0.95;;
23531;SDS011;11943;52.270;20.978;2023-06-04T08:01:16;5.13;;;1.75;;
23531;SDS011;11943;52.270;20.978;2023-06-04T08:03:41;1.45;;;0.93;;
23531;SDS011;11943;52.270;20.978;2023-06-04T08:06:07;1.75;;;0.85;;
23531;SDS011;11943;52.270;20.978;2023-06-04T08:08:33;3.45;;;1.10;;
23531;SDS011;11943;52.270;20.978;2023-06-04T08:10:59;1.90;;;1.05;;
23531;SDS011;11943;52.270;20.978;2023-06-04T08:13:25;1.63;;;0.90;;
23531;SDS011;11943;52.270;20.978;2023-06-04T08:15:50;3.17;;;1.25;;
23531;SDS011;11943;52.270;20.978;2023-06-04T08:18:16;3.70;;;0.90;;
23531;SDS011;11943;52.270;20.978;2023-06-04T08:20:42;2.55;;;1.00;;
23531;SDS011;11943;52.270;20.978;2023-06-04T08:23:08;1.00;;;0.80;;
23531;SDS011;11943;52.270;20.978;2023-06-04T08:25:33;4.38;;;0.77;;
23531;SDS011;11943;52.270;20.978;2023-06-04T08:27:59;4.20;;;1.00;;
23531;SDS011;11943;52.270;20.978;2023-06-04T08:30:25;5.25;;;0.93;;
23531;SDS011;11943;52.270;20.978;2023-06-04T08:32:52;2.20;;;1.08;;
23531;SDS011;11943;52.270;20.978;2023-06-04T08:35:18;3.22;;;0.85;;
23531;SDS011;11943;52.270;20.978;2023-06-04T08:37:44;1.85;;;0.90;;
23531;SDS011;11943;52.270;20.978;2023-06-04T08:40:09;1.85;;;0.88;;
23531;SDS011;11943;52.270;20.978;2023-06-04T08:42:43;2.15;;;0.90;;
23531;SDS011;11943;52.270;20.978;2023-06-04T08:45:12;1.33;;;0.75;;
23531;SDS011;11943;52.270;20.978;2023-06-04T08:47:48;1.50;;;0.80;;
23531;SDS011;11943;52.270;20.978;2023-06-04T08:50:19;3.83;;;1.10;;
23531;SDS011;11943;52.270;20.978;2023-06-04T08:52:46;2.40;;;1.15;;
23531;SDS011;11943;52.270;20.978;2023-06-04T08:55:13;1.83;;;0.90;;
23531;SDS011;11943;52.270;20.978;2023-06-04T08:57:39;4.85;;;1.02;;
23531;SDS011;11943;52.270;20.978;2023-06-04T09:00:05;2.92;;;0.70;;
23531;SDS011;11943;52.270;20.978;2023-06-04T09:02:36;1.10;;;0.68;;
23531;SDS011;11943;52.270;20.978;2023-06-04T09:05:05;3.97;;;0.90;;
23531;SDS011;11943;52.270;20.978;2023-06-04T09:07:35;0.98;;;0.70;;
23531;SDS011;11943;52.270;20.978;2023-06-04T09:10:04;3.85;;;0.80;;
23531;SDS011;11943;52.270;20.978;2023-06-04T09:12:31;1.98;;;0.85;;
23531;SDS011;11943;52.270;20.978;2023-06-04T09:15:00;2.85;;;0.88;;
23531;SDS011;11943;52.270;20.978;2023-06-04T09:17:26;3.50;;;0.77;;
23531;SDS011;11943;52.270;20.978;2023-06-04T09:19:53;1.80;;;0.80;;
23531;SDS011;11943;52.270;20.978;2023-06-04T09:22:18;2.47;;;0.90;;
23531;SDS011;11943;52.270;20.978;2023-06-04T09:24:45;2.22;;;0.80;;
23531;SDS011;11943;52.270;20.978;2023-06-04T09:27:13;1.60;;;0.88;;
23531;SDS011;11943;52.270;20.978;2023-06-04T09:29:54;2.83;;;0.75;;
23531;SDS011;11943;52.270;20.978;2023-06-04T09:32:24;3.50;;;0.88;;
23531;SDS011;11943;52.270;20.978;2023-06-04T09:34:54;2.33;;;0.82;;
23531;SDS011;11943;52.270;20.978;2023-06-04T09:37:22;1.15;;;0.80;;
23531;SDS011;11943;52.270;20.978;2023-06-04T09:39:54;1.60;;;0.90;;
23531;SDS011;11943;52.270;20.978;2023-06-04T09:42:21;3.75;;;0.80;;
23531;SDS011;11943;52.270;20.978;2023-06-04T09:44:47;0.95;;;0.77;;
23531;SDS011;11943;52.270;20.978;2023-06-04T09:47:13;1.83;;;1.27;;
23531;SDS011;11943;52.270;20.978;2023-06-04T09:49:42;2.05;;;0.80;;
23531;SDS011;11943;52.270;20.978;2023-06-04T09:52:12;6.03;;;1.55;;
23531;SDS011;11943;52.270;20.978;2023-06-04T09:54:38;1.35;;;0.95;;
23531;SDS011;11943;52.270;20.978;2023-06-04T09:57:18;3.70;;;0.70;;
23531;SDS011;11943;52.270;20.978;2023-06-04T09:59:45;3.60;;;1.08;;
23531;SDS011;11943;52.270;20.978;2023-06-04T10:02:18;1.65;;;0.88;;
23531;SDS011;11943;52.270;20.978;2023-06-04T10:04:48;1.80;;;0.93;;
23531;SDS011;11943;52.270;20.978;2023-06-04T10:07:19;1.73;;;0.90;;
23531;SDS011;11943;52.270;20.978;2023-06-04T10:09:46;0.98;;;0.75;;
23531;SDS011;11943;52.270;20.978;2023-06-04T10:12:14;3.25;;;1.20;;
23531;SDS011;11943;52.270;20.978;2023-06-04T10:14:44;0.73;;;0.70;;
23531;SDS011;11943;52.270;20.978;2023-06-04T10:17:16;3.30;;;1.10;;
23531;SDS011;11943;52.270;20.978;2023-06-04T10:19:44;2.88;;;0.80;;
23531;SDS011;11943;52.270;20.978;2023-06-04T10:22:10;2.17;;;0.93;;
23531;SDS011;11943;52.270;20.978;2023-06-04T10:24:37;2.25;;;0.90;;
23531;SDS011;11943;52.270;20.978;2023-06-04T10:27:03;5.25;;;1.05;;
23531;SDS011;11943;52.270;20.978;2023-06-04T10:29:35;4.30;;;0.90;;
23531;SDS011;11943;52.270;20.978;2023-06-04T10:32:02;1.75;;;0.93;;
23531;SDS011;11943;52.270;20.978;2023-06-04T10:34:28;3.63;;;1.08;;
23531;SDS011;11943;52.270;20.978;2023-06-04T10:36:55;0.93;;;0.82;;
23531;SDS011;11943;52.270;20.978;2023-06-04T10:39:27;3.05;;;0.73;;
23531;SDS011;11943;52.270;20.978;2023-06-04T10:42:00;1.85;;;0.90;;
23531;SDS011;11943;52.270;20.978;2023-06-04T10:44:28;2.05;;;1.17;;
23531;SDS011;11943;52.270;20.978;2023-06-04T10:49:28;5.35;;;0.93;;
23531;SDS011;11943;52.270;20.978;2023-06-04T10:51:55;3.83;;;0.95;;
23531;SDS011;11943;52.270;20.978;2023-06-04T10:54:24;8.13;;;0.80;;
23531;SDS011;11943;52.270;20.978;2023-06-04T10:56:51;5.07;;;1.05;;
23531;SDS011;11943;52.270;20.978;2023-06-04T10:59:17;2.50;;;0.95;;
23531;SDS011;11943;52.270;20.978;2023-06-04T11:01:43;2.03;;;0.90;;
23531;SDS011;11943;52.270;20.978;2023-06-04T11:04:19;2.58;;;0.90;;
23531;SDS011;11943;52.270;20.978;2023-06-04T11:07:09;1.10;;;0.88;;
23531;SDS011;11943;52.270;20.978;2023-06-04T11:09:40;2.10;;;0.90;;
23531;SDS011;11943;52.270;20.978;2023-06-04T11:12:13;0.50;;;0.50;;
23531;SDS011;11943;52.270;20.978;2023-06-04T11:14:39;1.38;;;0.70;;
23531;SDS011;11943;52.270;20.978;2023-06-04T11:17:08;1.85;;;0.80;;
23531;SDS011;11943;52.270;20.978;2023-06-04T11:19:39;2.78;;;0.70;;
23531;SDS011;11943;52.270;20.978;2023-06-04T11:22:05;0.70;;;0.60;;
23531;SDS011;11943;52.270;20.978;2023-06-04T11:24:35;2.03;;;0.80;;
23531;SDS011;11943;52.270;20.978;2023-06-04T11:27:01;4.43;;;0.90;;
23531;SDS011;11943;52.270;20.978;2023-06-04T11:29:27;0.65;;;0.65;;
23531;SDS011;11943;52.270;20.978;2023-06-04T11:31:53;5.40;;;1.10;;
23531;SDS011;11943;52.270;20.978;2023-06-04T11:34:26;1.92;;;0.77;;
23531;SDS011;11943;52.270;20.978;2023-06-04T11:36:53;2.53;;;0.95;;
23531;SDS011;11943;52.270;20.978;2023-06-04T11:39:22;3.28;;;0.55;;
23531;SDS011;11943;52.270;20.978;2023-06-04T11:41:51;1.33;;;0.65;;
23531;SDS011;11943;52.270;20.978;2023-06-04T11:44:18;4.05;;;0.82;;
23531;SDS011;11943;52.270;20.978;2023-06-04T11:46:44;5.50;;;1.05;;
23531;SDS011;11943;52.270;20.978;2023-06-04T11:49:17;4.72;;;1.05;;
23531;SDS011;11943;52.270;20.978;2023-06-04T11:51:51;1.98;;;0.80;;
23531;SDS011;11943;52.270;20.978;2023-06-04T11:54:18;1.80;;;0.90;;
23531;SDS011;11943;52.270;20.978;2023-06-04T11:56:45;1.50;;;0.60;;
23531;SDS011;11943;52.270;20.978;2023-06-04T11:59:14;1.95;;;0.75;;
23531;SDS011;11943;52.270;20.978;2023-06-04T12:04:13;4.53;;;1.25;;
23531;SDS011;11943;52.270;20.978;2023-06-04T12:06:58;1.10;;;0.70;;
23531;SDS011;11943;52.270;20.978;2023-06-04T12:09:29;1.60;;;0.75;;
23531;SDS011;11943;52.270;20.978;2023-06-04T12:11:58;2.35;;;0.60;;
23531;SDS011;11943;52.270;20.978;2023-06-04T12:14:27;3.97;;;1.00;;
23531;SDS011;11943;52.270;20.978;2023-06-04T12:17:07;3.20;;;0.73;;
23531;SDS011;11943;52.270;20.978;2023-06-04T12:19:44;1.15;;;0.75;;
23531;SDS011;11943;52.270;20.978;2023-06-04T12:22:13;2.40;;;0.88;;
23531;SDS011;11943;52.270;20.978;2023-06-04T12:24:52;2.60;;;1.00;;
23531;SDS011;11943;52.270;20.978;2023-06-04T12:27:19;2.15;;;0.80;;
23531;SDS011;11943;52.270;20.978;2023-06-04T12:30:01;1.63;;;1.05;;
23531;SDS011;11943;52.270;20.978;2023-06-04T12:32:28;2.35;;;0.98;;
23531;SDS011;11943;52.270;20.978;2023-06-04T12:34:54;1.58;;;0.90;;
23531;SDS011;11943;52.270;20.978;2023-06-04T12:37:21;0.95;;;0.60;;
23531;SDS011;11943;52.270;20.978;2023-06-04T12:39:47;1.85;;;0.70;;
23531;SDS011;11943;52.270;20.978;2023-06-04T12:42:13;1.60;;;0.80;;
23531;SDS011;11943;52.270;20.978;2023-06-04T12:44:39;5.15;;;0.80;;
23531;SDS011;11943;52.270;20.978;2023-06-04T12:47:05;1.67;;;1.10;;
23531;SDS011;11943;52.270;20.978;2023-06-04T12:49:32;3.50;;;0.90;;
23531;SDS011;11943;52.270;20.978;2023-06-04T12:51:58;2.40;;;0.82;;
23531;SDS011;11943;52.270;20.978;2023-06-04T12:54:23;3.50;;;0.90;;
23531;SDS011;11943;52.270;20.978;2023-06-04T12:56:49;2.05;;;0.90;;
23531;SDS011;11943;52.270;20.978;2023-06-04T12:59:16;1.13;;;0.90;;
23531;SDS011;11943;52.270;20.978;2023-06-04T13:01:42;3.60;;;0.98;;
23531;SDS011;11943;52.270;20.978;2023-06-04T13:04:07;5.28;;;1.00;;
23531;SDS011;11943;52.270;20.978;2023-06-04T13:06:34;8.70;;;0.93;;
23531;SDS011;11943;52.270;20.978;2023-06-04T13:09:03;1.58;;;0.85;;
23531;SDS011;11943;52.270;20.978;2023-06-04T13:11:34;1.23;;;0.80;;
23531;SDS011;11943;52.270;20.978;2023-06-04T13:14:07;2.50;;;1.00;;
23531;SDS011;11943;52.270;20.978;2023-06-04T13:16:33;3.17;;;0.93;;
23531;SDS011;11943;52.270;20.978;2023-06-04T13:19:00;2.45;;;0.93;;
23531;SDS011;11943;52.270;20.978;2023-06-04T13:21:26;0.95;;;0.68;;
23531;SDS011;11943;52.270;20.978;2023-06-04T13:23:51;3.75;;;0.90;;
23531;SDS011;11943;52.270;20.978;2023-06-04T13:26:17;2.15;;;0.80;;
23531;SDS011;11943;52.270;20.978;2023-06-04T13:28:43;1.00;;;0.90;;
23531;SDS011;11943;52.270;20.978;2023-06-04T13:31:09;3.53;;;0.63;;
23531;SDS011;11943;52.270;20.978;2023-06-04T13:33:35;1.63;;;0.90;;
23531;SDS011;11943;52.270;20.978;2023-06-04T13:36:04;3.63;;;0.80;;
23531;SDS011;11943;52.270;20.978;2023-06-04T13:38:31;1.05;;;0.70;;
23531;SDS011;11943;52.270;20.978;2023-06-04T13:40:57;6.70;;;0.80;;
23531;SDS011;11943;52.270;20.978;2023-06-04T13:43:23;2.20;;;0.98;;
23531;SDS011;11943;52.270;20.978;2023-06-04T13:45:48;1.55;;;0.77;;
23531;SDS011;11943;52.270;20.978;2023-06-04T13:48:14;3.75;;;0.80;;
23531;SDS011;11943;52.270;20.978;2023-06-04T13:50:40;1.65;;;0.80;;
23531;SDS011;11943;52.270;20.978;2023-06-04T13:53:06;3.85;;;0.70;;
23531;SDS011;11943;52.270;20.978;2023-06-04T13:55:32;1.67;;;0.90;;
23531;SDS011;11943;52.270;20.978;2023-06-04T13:57:58;7.75;;;0.88;;
23531;SDS011;11943;52.270;20.978;2023-06-04T14:00:24;0.90;;;0.75;;
23531;SDS011;11943;52.270;20.978;2023-06-04T14:02:49;2.08;;;1.00;;
23531;SDS011;11943;52.270;20.978;2023-06-04T14:05:16;6.95;;;1.00;;
23531;SDS011;11943;52.270;20.978;2023-06-04T14:07:42;1.23;;;0.68;;
23531;SDS011;11943;52.270;20.978;2023-06-04T14:10:08;1.73;;;1.00;;
23531;SDS011;11943;52.270;20.978;2023-06-04T14:12:35;1.95;;;1.08;;
23531;SDS011;11943;52.270;20.978;2023-06-04T14:15:02;1.85;;;0.82;;
23531;SDS011;11943;52.270;20.978;2023-06-04T14:17:28;2.05;;;1.20;;
23531;SDS011;11943;52.270;20.978;2023-06-04T14:19:53;1.70;;;0.98;;
23531;SDS011;11943;52.270;20.978;2023-06-04T14:22:19;3.65;;;1.10;;
23531;SDS011;11943;52.270;20.978;2023-06-04T14:24:45;1.80;;;1.00;;
23531;SDS011;11943;52.270;20.978;2023-06-04T14:27:11;4.40;;;0.80;;
23531;SDS011;11943;52.270;20.978;2023-06-04T14:29:36;3.30;;;1.00;;
23531;SDS011;11943;52.270;20.978;2023-06-04T14:32:05;2.58;;;0.80;;
23531;SDS011;11943;52.270;20.978;2023-06-04T14:34:30;1.83;;;0.80;;
23531;SDS011;11943;52.270;20.978;2023-06-04T14:36:59;1.52;;;0.90;;
23531;SDS011;11943;52.270;20.978;2023-06-04T14:39:26;5.65;;;0.98;;
23531;SDS011;11943;52.270;20.978;2023-06-04T14:41:52;3.05;;;1.20;;
23531;SDS011;11943;52.270;20.978;2023-06-04T14:44:18;3.00;;;0.90;;
23531;SDS011;11943;52.270;20.978;2023-06-04T14:46:44;1.63;;;0.98;;
23531;SDS011;11943;52.270;20.978;2023-06-04T14:49:09;3.50;;;1.00;;
23531;SDS011;11943;52.270;20.978;2023-06-04T14:51:35;1.20;;;1.10;;
23531;SDS011;11943;52.270;20.978;2023-06-04T14:54:01;1.85;;;0.80;;